• Join FlightAware (Why Join?)
  • Login
  • US Flag 
07:04PM EST


 

Airport Tracker/Info


-or-


 

Live Flight TrackerFlight Track Log ✈ N675MC ✈ 16-Sep-2013 ✈ KATL - KSDF

Flight Track Log - Related Links

Times and Time Zones

All times are in EDT time to prevent confusion due to time zone crossing. See the N675MC flight status page for this flight to view local times or setup timezone preferences in your user account.

Time Position Orientation Groundspeed Altitude Reporting Facility
EDT Latitude Longitude Course Direction KTS MPH feet Rate Location/Type
08:29AM 33.6500 -84.3667 349° North 204 235 2,400  Level Atlanta TRACON
08:30AM 33.6833 -84.2833 64° Northeast 275 316 4,700 2,340 Climbing Atlanta TRACON
08:31AM 33.7500 -84.2333 32° Northeast 273 314 7,100 2,160 Climbing Atlanta TRACON
08:32AM 33.8167 -84.2500 348° North 291 335 9,300 1,620 Climbing Atlanta TRACON
08:33AM 34.1577 -84.5706 348° North  Level Estimated
08:33AM 33.8833 -84.3000 328° Northwest 305 351 10,400  Level Atlanta TRACON
08:34AM 34.2619 -84.5993 349° North  Level Estimated
08:34AM 33.9667 -84.3667 326° Northwest 346 398 11,800  Level Atlanta TRACON
08:34AM 34.0211 -84.4072 328° Northwest 372 428 12,400 1,380 Climbing Atlanta Center
08:35AM 34.1128 -84.4803 327° Northwest 393 452 14,100 2,100 Climbing Atlanta Center
08:36AM 34.2044 -84.5511 327° Northwest 393 452 16,700 2,160 Climbing Atlanta Center
08:37AM 34.3064 -84.5869 344° North 376 433 18,500 1,500 Climbing Atlanta Center
08:38AM 34.4150 -84.6178 347° North 387 445 19,800 1,260 Climbing Atlanta Center
08:39AM 34.5275 -84.6514 346° North 404 465 21,100 1,320 Climbing Atlanta Center
08:40AM 34.6567 -84.6828 349° North 414 476 22,500 1,440 Climbing Atlanta Center
08:41AM 34.7714 -84.7114 348° North 419 482 24,000 1,500 Climbing Atlanta Center
08:42AM 34.8881 -84.7403 349° North 419 482 25,500 1,440 Climbing Atlanta Center
08:43AM 35.0067 -84.7639 351° North 425 489 26,900 1,200 Climbing Atlanta Center
08:44AM 35.1275 -84.7906 350° North 430 495 28,000 540 Climbing Atlanta Center
08:45AM 35.2422 -84.8372 342° North 430 495 28,000  Level Atlanta Center
08:46AM 35.3647 -84.8919 340° North 443 510 28,000  Level Atlanta Center
08:47AM 35.4878 -84.9186 350° North 443 510 28,000  Level Atlanta Center
08:48AM 35.6128 -84.9406 352° North 443 510 28,000  Level Atlanta Center
08:49AM 35.7397 -84.9625 352° North 449 517 28,000  Level Atlanta Center
08:51AM 35.9794 -84.9992 353° North 463 533 28,000  Level Indianapolis Center
08:53AM 36.1256 -85.0444 346° North 450 518 28,000  Level Indianapolis Center
08:54AM 36.2472 -85.0781 347° North 448 516 28,000  Level Indianapolis Center
08:55AM 36.3675 -85.1169 345° North 446 513 28,000  Level Indianapolis Center
08:56AM 36.4881 -85.1536 346° North 445 512 28,000  Level Indianapolis Center
08:57AM 36.6094 -85.1875 347° North 446 513 28,000 -240 Level Indianapolis Center
08:58AM 36.7317 -85.2153 350° North 447 514 27,600 -600 Descending Indianapolis Center
08:59AM 36.8558 -85.2153 360° North 454 522 26,800 -1,380 Descending Indianapolis Center
09:00AM 36.9747 -85.1564 22° Northeast 460 529 24,800 -2,700 Descending Indianapolis Center
09:01AM 37.1025 -85.0628 30° Northeast 448 516 21,300 -2,820 Descending Indianapolis Center
09:02AM 37.2106 -85.0169 19° North 409 471 19,000 -2,400 Descending Indianapolis Center
09:03AM 37.3147 -84.9828 15° North 390 449 16,500 -2,760 Descending Indianapolis Center
09:04AM 37.4206 -84.9642 North 383 441 13,400 -2,400 Descending Indianapolis Center
09:05AM 37.5206 -84.9539 North 366 421 11,600 -1,260 Descending Indianapolis Center
09:06AM 37.6128 -84.9469 North 340 391 10,900 -540 Descending Indianapolis Center
09:07AM 37.6950 -85.0100 329° Northwest 313 360 10,500 -540 Descending Indianapolis Center
09:08AM 37.7506 -85.0975 309° West 319 367 9,900 -300 Descending Indianapolis Center
09:09AM 37.8028 -85.1708 312° West 289 333 10,000 -300 Climbing Indianapolis Center
09:10AM 37.8600 -85.2347 319° Northwest 273 314 9,300 -1,260 Descending Indianapolis Center
09:11AM 37.9228 -85.2825 329° Northwest 265 305 7,500 -1,560 Descending Indianapolis Center
09:12AM 37.9817 -85.3333 326° Northwest 258 297 6,200 -780 Descending Indianapolis Center
09:13AM 38.0417 -85.3853 326° Northwest 259 298 6,000 -120 Descending Indianapolis Center
09:14AM 38.1022 -85.4353 327° Northwest 258 297 6,000  Level Indianapolis Center
09:15AM 38.1625 -85.4858 327° Northwest 260 299 6,000  Level Indianapolis Center
09:16AM 38.2350 -85.5456 327° Northwest 259 298 6,000 -240 Level Indianapolis Center
09:17AM 38.2961 -85.5967 327° Northwest 261 300 5,600 -900 Descending Indianapolis Center
09:18AM 38.3550 -85.6469 326° Northwest 258 297 4,200 -1,200 Descending Indianapolis Center
09:19AM 38.3639 -85.7194 279° West 244 281 3,200 -540 Descending Indianapolis Center
09:20AM 38.3297 -85.7792 234° Southwest 229 264 3,100 -420 Descending Indianapolis Center
09:21AM 38.2750 -85.7614 166° South 214 246 2,400 -720 Descending Indianapolis Center